Time;durP1;ratioP1;P1;durP2;ratioP2;P2;SDS_P1;SDS_P2;PMS_P1;PMS_P2;Temp;Humidity;BMP_temperature;BMP_pressure;BME280_temperature;BME280_humidity;BME280_pressure;Samples;Min_cycle;Max_cycle;Signal;HPM_P1;HPM_P2
2024/03/31 00:00:13;;;;;;;2.90;2.50;;;15.80;91.40;;;;;;5078581;28;20196;-68
2024/03/31 00:02:43;;;;;;;3.77;3.00;;;15.80;91.50;;;;;;5073741;28;20660;-68
2024/03/31 00:05:10;;;;;;;3.43;2.90;;;15.80;91.50;;;;;;5088320;28;20201;-67
2024/03/31 00:07:36;;;;;;;4.90;3.27;;;15.70;91.50;;;;;;5095751;28;20689;-68
2024/03/31 00:10:04;;;;;;;3.53;2.93;;;15.70;91.60;;;;;;5097355;28;20274;-68
2024/03/31 00:12:30;;;;;;;4.20;2.80;;;15.70;91.70;;;;;;5078164;28;20650;-68
2024/03/31 00:14:57;;;;;;;3.37;2.60;;;15.70;91.80;;;;;;5092492;28;20195;-68
2024/03/31 00:17:24;;;;;;;2.90;2.67;;;15.70;91.80;;;;;;5081171;28;20214;-68
2024/03/31 00:19:53;;;;;;;3.33;3.00;;;15.60;91.90;;;;;;5092014;28;20192;-69
2024/03/31 00:22:19;;;;;;;3.70;2.97;;;15.60;92.00;;;;;;5094226;28;20196;-69
2024/03/31 00:24:46;;;;;;;2.90;2.70;;;15.60;92.10;;;;;;5099292;28;20303;-69
2024/03/31 00:27:12;;;;;;;3.07;2.77;;;15.60;92.10;;;;;;5098098;28;20200;-69
2024/03/31 00:29:40;;;;;;;3.73;3.23;;;15.60;92.20;;;;;;5093635;28;20662;-69
2024/03/31 00:32:06;;;;;;;3.77;3.30;;;15.50;92.30;;;;;;5091882;28;20663;-69
2024/03/31 00:34:33;;;;;;;3.47;2.80;;;15.60;92.40;;;;;;5093457;28;20195;-69
2024/03/31 00:37:01;;;;;;;3.10;2.60;;;15.60;92.30;;;;;;5091997;28;20224;-69
2024/03/31 00:39:28;;;;;;;5.77;3.30;;;15.60;92.40;;;;;;5098934;28;20222;-69
2024/03/31 00:41:55;;;;;;;4.83;3.23;;;15.60;92.50;;;;;;5090312;28;20279;-69
2024/03/31 00:44:22;;;;;;;4.33;3.30;;;15.60;92.50;;;;;;5072551;28;20571;-69
2024/03/31 00:46:48;;;;;;;5.87;3.90;;;15.60;92.50;;;;;;5091825;28;20196;-69
2024/03/31 00:49:15;;;;;;;8.53;4.73;;;15.60;92.50;;;;;;5073369;28;20228;-68
2024/03/31 00:51:42;;;;;;;12.83;6.50;;;15.50;92.60;;;;;;5093444;28;20192;-69
2024/03/31 00:54:10;;;;;;;16.70;7.33;;;15.60;92.80;;;;;;5078294;28;20234;-69
2024/03/31 00:56:37;;;;;;;29.37;12.93;;;15.60;92.90;;;;;;5064445;28;20696;-68
2024/03/31 00:59:04;;;;;;;33.50;14.97;;;15.50;93.00;;;;;;5090017;28;20307;-68
2024/03/31 01:01:30;;;;;;;28.87;13.37;;;15.50;93.30;;;;;;5080294;28;20505;-69
2024/03/31 01:03:57;;;;;;;22.13;11.97;;;15.50;93.30;;;;;;5097190;28;20274;-69
2024/03/31 01:06:24;;;;;;;26.33;12.87;;;15.40;93.40;;;;;;5073737;28;20195;-67
2024/03/31 01:08:53;;;;;;;20.53;10.23;;;15.40;93.50;;;;;;5084407;28;20191;-68
2024/03/31 01:11:21;;;;;;;25.90;11.97;;;15.40;93.50;;;;;;5080514;28;20202;-67
2024/03/31 01:13:49;;;;;;;25.37;12.57;;;15.40;93.70;;;;;;5103496;28;20649;-68
2024/03/31 01:16:16;;;;;;;23.77;11.57;;;15.40;93.80;;;;;;5092271;28;20282;-68
2024/03/31 01:18:44;;;;;;;19.90;11.07;;;15.40;93.80;;;;;;5084106;28;20366;-67
2024/03/31 01:21:13;;;;;;;36.63;17.60;;;15.40;93.90;;;;;;5082203;28;20226;-68
2024/03/31 01:23:57;;;;;;;40.60;18.80;;;15.40;94.10;;;;;;5096353;28;20323;-68
2024/03/31 01:26:23;;;;;;;31.67;15.27;;;15.40;94.20;;;;;;5092720;28;20371;-68
2024/03/31 01:28:50;;;;;;;29.83;14.50;;;15.40;94.20;;;;;;5096681;28;20284;-68
2024/03/31 01:31:17;;;;;;;24.77;12.30;;;15.40;94.20;;;;;;5095746;28;20203;-68
2024/03/31 01:33:46;;;;;;;24.67;12.63;;;15.30;94.20;;;;;;5095167;28;20229;-68
2024/03/31 01:36:12;;;;;;;44.23;19.00;;;15.20;94.40;;;;;;5095196;28;20656;-68
2024/03/31 01:38:40;;;;;;;36.77;17.00;;;15.20;94.70;;;;;;5090739;28;20236;-68
2024/03/31 01:41:08;;;;;;;27.33;13.47;;;15.20;94.70;;;;;;5074852;28;20501;-68
2024/03/31 01:43:37;;;;;;;30.20;14.20;;;15.10;94.70;;;;;;5071966;28;20683;-67
2024/03/31 01:46:03;;;;;;;24.43;11.97;;;15.10;94.90;;;;;;5090557;28;20198;-68
2024/03/31 01:48:30;;;;;;;22.43;11.60;;;15.10;95.00;;;;;;5074706;28;20283;-68
2024/03/31 01:50:57;;;;;;;22.60;10.63;;;15.00;95.20;;;;;;5072578;28;20203;-67
2024/03/31 01:53:24;;;;;;;17.03;8.93;;;15.00;95.30;;;;;;5103421;28;20186;-67
2024/03/31 01:55:50;;;;;;;21.77;10.03;;;14.90;95.30;;;;;;5103220;28;20543;-67
2024/03/31 01:58:19;;;;;;;25.67;11.77;;;14.90;95.50;;;;;;5094917;28;20338;-67
2024/03/31 02:00:45;;;;;;;24.17;11.47;;;14.90;95.80;;;;;;5071842;28;20195;-67
2024/03/31 02:03:12;;;;;;;17.20;9.43;;;14.90;95.80;;;;;;5075731;28;20666;-68
2024/03/31 02:05:38;;;;;;;18.40;9.07;;;15.00;95.90;;;;;;5072158;28;20207;-68
2024/03/31 02:08:05;;;;;;;14.03;7.83;;;14.90;96.00;;;;;;5076482;28;20188;-68
2024/03/31 02:10:32;;;;;;;16.37;8.40;;;14.80;96.10;;;;;;5085091;28;20547;-68
2024/03/31 02:12:59;;;;;;;15.33;7.67;;;14.80;96.30;;;;;;5089562;28;20191;-67
2024/03/31 02:15:26;;;;;;;14.53;7.33;;;14.70;96.40;;;;;;5085770;28;20195;-68
2024/03/31 02:17:54;;;;;;;15.77;8.53;;;14.70;96.60;;;;;;5098281;28;20267;-68
2024/03/31 02:20:20;;;;;;;13.60;7.73;;;14.70;96.70;;;;;;5090440;28;20206;-67
2024/03/31 02:22:47;;;;;;;14.07;7.83;;;14.70;96.80;;;;;;5096271;28;20259;-68
2024/03/31 02:25:13;;;;;;;14.13;7.47;;;14.70;96.90;;;;;;5072102;28;20212;-68
2024/03/31 02:27:40;;;;;;;13.53;7.53;;;14.70;97.00;;;;;;5101489;28;20189;-68
2024/03/31 02:30:07;;;;;;;17.43;8.90;;;14.70;97.00;;;;;;5095699;28;20199;-68
2024/03/31 02:32:36;;;;;;;16.43;8.97;;;14.80;97.10;;;;;;5085549;28;20196;-68
2024/03/31 02:35:04;;;;;;;22.27;11.07;;;14.70;97.10;;;;;;5077325;28;20196;-67
2024/03/31 02:37:31;;;;;;;16.97;8.67;;;14.70;97.30;;;;;;5093968;28;20212;-67
2024/03/31 02:39:58;;;;;;;15.73;9.30;;;14.70;97.40;;;;;;5078141;28;20212;-68
2024/03/31 02:42:25;;;;;;;14.97;8.13;;;14.70;97.50;;;;;;5067714;28;20192;-68
2024/03/31 02:44:51;;;;;;;19.20;9.30;;;14.70;97.50;;;;;;5076671;28;20297;-68
2024/03/31 02:47:19;;;;;;;17.70;8.73;;;14.70;97.60;;;;;;5093907;28;20194;-68
2024/03/31 02:49:46;;;;;;;14.40;7.80;;;14.70;97.70;;;;;;5091977;28;20187;-68
2024/03/31 02:52:13;;;;;;;15.17;7.57;;;14.70;97.80;;;;;;5096090;28;20613;-69
2024/03/31 02:54:39;;;;;;;15.40;7.97;;;14.60;97.80;;;;;;5089932;28;20199;-69
2024/03/31 02:57:07;;;;;;;14.57;8.03;;;14.60;97.90;;;;;;5092503;28;20195;-69
2024/03/31 02:59:34;;;;;;;21.40;10.00;;;14.60;98.00;;;;;;5080877;28;20222;-69
2024/03/31 03:02:05;;;;;;;19.60;10.90;;;14.60;98.10;;;;;;5081608;28;20196;-69
2024/03/31 03:04:32;;;;;;;20.73;10.20;;;14.60;98.60;;;;;;5098786;28;20196;-68
2024/03/31 03:07:00;;;;;;;15.73;8.67;;;14.60;98.30;;;;;;5092638;28;20658;-69
2024/03/31 03:09:27;;;;;;;13.67;7.90;;;14.70;98.40;;;;;;5109958;28;20271;-69
2024/03/31 03:11:54;;;;;;;17.07;9.13;;;14.60;98.40;;;;;;5080142;28;20195;-68
2024/03/31 03:14:20;;;;;;;16.73;9.20;;;14.60;98.50;;;;;;5084953;28;20307;-69
2024/03/31 03:16:48;;;;;;;18.13;9.57;;;14.60;98.60;;;;;;5071363;28;20195;-69
2024/03/31 03:19:14;;;;;;;17.07;9.13;;;14.60;98.70;;;;;;5091473;28;20213;-68
2024/03/31 03:21:42;;;;;;;15.07;7.80;;;14.60;98.80;;;;;;5091154;28;20259;-69
2024/03/31 03:24:10;;;;;;;15.10;8.57;;;14.60;98.90;;;;;;5101104;28;20235;-69
2024/03/31 03:26:37;;;;;;;13.03;6.90;;;14.60;99.00;;;;;;5080581;28;20287;-68
2024/03/31 03:29:04;;;;;;;10.27;6.27;;;14.60;99.10;;;;;;5099131;28;20199;-68
2024/03/31 03:31:31;;;;;;;17.87;8.17;;;14.60;99.10;;;;;;5105299;28;20191;-69
2024/03/31 03:33:57;;;;;;;22.17;10.30;;;14.60;99.20;;;;;;5097702;28;20719;-68
2024/03/31 03:36:24;;;;;;;15.90;9.53;;;14.60;99.30;;;;;;5074802;28;20542;-69
2024/03/31 03:38:51;;;;;;;16.07;9.20;;;14.60;99.30;;;;;;5075377;28;20210;-69
2024/03/31 03:41:27;;;;;;;13.73;8.03;;;14.70;99.40;;;;;;5084001;28;20688;-68
2024/03/31 03:43:54;;;;;;;15.97;7.37;;;14.70;99.40;;;;;;5076066;28;20733;-68
2024/03/31 03:46:21;;;;;;;12.43;7.17;;;14.70;99.40;;;;;;5075385;28;20200;-69
2024/03/31 03:48:48;;;;;;;19.47;9.10;;;14.70;99.30;;;;;;5070089;28;20716;-69
2024/03/31 03:51:15;;;;;;;17.83;10.00;;;14.70;99.50;;;;;;5087214;28;20203;-69
2024/03/31 03:53:42;;;;;;;22.17;11.30;;;14.70;99.70;;;;;;5076959;28;20990;-68
2024/03/31 03:56:10;;;;;;;21.40;10.03;;;14.70;99.90;;;;;;5076367;28;20205;-69
2024/03/31 03:58:37;;;;;;;19.43;9.63;;;14.70;99.90;;;;;;5075670;28;20307;-68
2024/03/31 04:01:04;;;;;;;14.23;8.37;;;14.70;99.90;;;;;;5094113;28;20198;-69
2024/03/31 04:03:32;;;;;;;14.87;7.87;;;14.60;99.90;;;;;;5080105;28;20629;-69
2024/03/31 04:06:00;;;;;;;16.60;7.77;;;14.70;99.90;;;;;;5072709;28;20191;-69
2024/03/31 04:08:26;;;;;;;14.00;6.93;;;14.70;99.90;;;;;;5086683;28;20564;-69
2024/03/31 04:10:54;;;;;;;12.47;6.17;;;14.70;99.90;;;;;;5079859;28;20235;-69
2024/03/31 04:13:21;;;;;;;14.77;7.83;;;14.60;99.90;;;;;;5074187;28;20547;-69
2024/03/31 04:15:58;;;;;;;15.43;7.30;;;14.70;99.90;;;;;;5072231;28;20199;-68
2024/03/31 04:18:28;;;;;;;13.27;6.73;;;14.60;99.90;;;;;;5078603;28;20270;-69
2024/03/31 04:20:55;;;;;;;10.57;6.33;;;14.70;99.90;;;;;;5093015;28;20558;-69
2024/03/31 04:23:21;;;;;;;10.73;5.60;;;14.60;99.90;;;;;;5094740;28;20722;-68
2024/03/31 04:25:49;;;;;;;9.67;6.10;;;14.60;99.90;;;;;;5073186;28;20891;-67
2024/03/31 04:28:15;;;;;;;8.93;5.30;;;14.60;99.90;;;;;;5081475;28;20204;-68
2024/03/31 04:30:43;;;;;;;9.00;5.23;;;14.60;99.90;;;;;;5069728;28;20436;-68
2024/03/31 04:33:11;;;;;;;10.13;5.70;;;14.50;99.90;;;;;;5073392;28;20203;-68
2024/03/31 04:35:39;;;;;;;13.47;6.30;;;14.50;99.90;;;;;;5074774;28;20198;-67
2024/03/31 04:38:05;;;;;;;10.43;6.17;;;14.50;99.90;;;;;;5073559;28;20674;-68
2024/03/31 04:40:33;;;;;;;11.13;6.10;;;14.60;99.90;;;;;;5091029;28;20273;-68
2024/03/31 04:42:59;;;;;;;9.57;5.60;;;14.50;99.90;;;;;;5070160;28;20210;-68
2024/03/31 04:45:29;;;;;;;12.07;5.93;;;14.50;99.90;;;;;;5075201;28;20191;-68
2024/03/31 04:47:59;;;;;;;11.93;5.57;;;14.40;99.90;;;;;;5091109;28;20601;-68
2024/03/31 04:50:28;;;;;;;18.87;8.17;;;14.30;99.90;;;;;;5082532;28;20205;-68
2024/03/31 04:52:54;;;;;;;16.87;8.60;;;14.30;99.90;;;;;;5073087;28;20664;-67
2024/03/31 04:55:22;;;;;;;16.00;9.13;;;14.30;99.90;;;;;;5077073;28;20195;-68
2024/03/31 04:57:48;;;;;;;15.43;8.10;;;14.30;99.90;;;;;;5071453;28;20294;-68
2024/03/31 05:00:16;;;;;;;20.63;10.47;;;14.30;99.90;;;;;;5090823;28;20709;-68
2024/03/31 05:02:45;;;;;;;19.83;10.00;;;14.20;99.90;;;;;;5072894;28;20581;-67
2024/03/31 05:05:12;;;;;;;16.67;8.80;;;14.20;99.90;;;;;;5104042;28;20197;-68
2024/03/31 05:07:40;;;;;;;20.53;10.07;;;14.20;99.90;;;;;;5094647;28;20548;-68
2024/03/31 05:10:08;;;;;;;14.47;8.80;;;14.20;99.90;;;;;;5070171;28;20199;-68
2024/03/31 05:12:34;;;;;;;18.33;9.10;;;14.30;99.90;;;;;;5072381;28;20565;-69
2024/03/31 05:15:01;;;;;;;14.67;8.07;;;14.30;99.90;;;;;;5098399;28;20183;-68
2024/03/31 05:17:28;;;;;;;14.43;7.60;;;14.30;99.90;;;;;;5072506;28;20272;-68
2024/03/31 05:19:56;;;;;;;11.67;6.70;;;14.30;99.90;;;;;;5065722;28;20342;-68
2024/03/31 05:22:22;;;;;;;13.60;6.80;;;14.20;99.90;;;;;;5099277;28;20198;-68
2024/03/31 05:24:50;;;;;;;18.23;8.60;;;14.20;99.90;;;;;;5076009;28;20298;-69
2024/03/31 05:27:17;;;;;;;21.37;7.93;;;14.20;99.90;;;;;;5073915;28;20229;-67
2024/03/31 05:29:44;;;;;;;14.00;8.40;;;14.20;99.90;;;;;;5090651;28;20235;-68
2024/03/31 05:32:10;;;;;;;16.73;8.57;;;14.20;99.90;;;;;;5072027;28;20214;-68
2024/03/31 05:35:09;;;;;;;12.53;6.90;;;14.20;99.90;;;;;;5076453;28;20214;-68
2024/03/31 05:37:36;;;;;;;16.17;7.87;;;14.30;99.90;;;;;;5087616;28;20218;-68
2024/03/31 05:40:05;;;;;;;14.87;7.70;;;14.30;99.90;;;;;;5072949;28;20321;-68
2024/03/31 05:42:32;;;;;;;15.30;6.57;;;14.30;99.90;;;;;;5069365;28;20195;-68
2024/03/31 05:44:59;;;;;;;14.60;7.57;;;14.30;99.90;;;;;;5073242;28;20194;-68
2024/03/31 05:47:25;;;;;;;13.40;7.23;;;14.40;99.90;;;;;;5072273;28;20208;-68
2024/03/31 05:49:52;;;;;;;8.50;5.47;;;14.40;99.90;;;;;;5071293;28;20195;-68
2024/03/31 05:52:37;;;;;;;10.83;6.60;;;14.40;99.90;;;;;;5070191;28;20544;-67
2024/03/31 05:55:06;;;;;;;16.93;9.13;;;14.40;99.90;;;;;;5094541;28;20206;-68
2024/03/31 05:57:32;;;;;;;26.40;10.23;;;14.50;99.90;;;;;;5094463;28;20199;-69
2024/03/31 05:59:59;;;;;;;19.30;9.70;;;14.50;99.90;;;;;;5082530;28;20699;-69
2024/03/31 06:02:26;;;;;;;19.73;9.67;;;14.60;99.90;;;;;;5081422;28;20210;-68
2024/03/31 06:04:57;;;;;;;20.20;9.93;;;14.60;99.90;;;;;;5089848;28;20207;-69
2024/03/31 06:07:23;;;;;;;22.57;11.97;;;14.60;99.90;;;;;;5075605;28;20208;-68
2024/03/31 06:09:50;;;;;;;27.67;11.80;;;14.60;99.90;;;;;;5081284;28;20196;-69
2024/03/31 06:12:18;;;;;;;32.00;13.77;;;14.60;99.90;;;;;;5077540;28;20288;-68
2024/03/31 06:14:45;;;;;;;28.33;14.30;;;14.70;99.90;;;;;;5075932;28;20546;-68
2024/03/31 06:17:11;;;;;;;34.63;15.70;;;14.70;99.90;;;;;;5079344;28;20615;-68
2024/03/31 06:19:38;;;;;;;26.33;12.97;;;14.80;99.90;;;;;;5077857;28;20300;-69
2024/03/31 06:22:04;;;;;;;28.90;12.63;;;14.80;99.90;;;;;;5094412;28;20206;-68
2024/03/31 06:24:32;;;;;;;19.57;10.20;;;14.70;99.90;;;;;;5093115;28;20659;-68
2024/03/31 06:26:58;;;;;;;17.87;8.80;;;14.80;99.90;;;;;;5074450;28;20650;-68
2024/03/31 06:29:27;;;;;;;21.00;9.77;;;14.80;99.90;;;;;;5075904;28;20183;-68
2024/03/31 06:31:53;;;;;;;28.93;13.03;;;14.80;99.90;;;;;;5076100;28;20207;-67
2024/03/31 06:34:20;;;;;;;31.63;14.73;;;14.80;99.90;;;;;;5079303;28;20217;-68
2024/03/31 06:36:46;;;;;;;38.17;15.37;;;14.80;99.90;;;;;;5078564;28;20202;-68
2024/03/31 06:39:14;;;;;;;31.57;14.40;;;14.80;99.90;;;;;;5073697;28;20837;-69
2024/03/31 06:41:40;;;;;;;33.40;14.50;;;14.80;99.90;;;;;;5096611;28;20199;-68
2024/03/31 06:44:07;;;;;;;36.73;13.87;;;14.80;99.90;;;;;;5079472;28;20255;-68
2024/03/31 06:46:35;;;;;;;36.90;14.20;;;14.80;99.90;;;;;;5078316;28;20565;-68
2024/03/31 06:49:02;;;;;;;38.37;15.40;;;14.70;99.90;;;;;;5100329;28;20281;-68
2024/03/31 06:51:28;;;;;;;36.60;14.60;;;14.70;99.90;;;;;;5078864;28;20206;-69
2024/03/31 06:53:55;;;;;;;40.80;13.30;;;14.70;99.90;;;;;;5073318;28;20199;-68
2024/03/31 06:56:22;;;;;;;41.20;14.33;;;14.70;99.90;;;;;;5106474;28;20260;-69
2024/03/31 06:58:49;;;;;;;26.20;12.03;;;14.70;99.90;;;;;;5094793;28;20187;-68
2024/03/31 07:01:16;;;;;;;45.17;13.37;;;14.70;99.90;;;;;;5075096;28;20252;-68
2024/03/31 07:03:45;;;;;;;33.37;12.60;;;14.70;99.90;;;;;;5081455;28;20183;-68
2024/03/31 07:06:12;;;;;;;47.47;15.00;;;14.80;99.90;;;;;;5075079;28;20203;-68
2024/03/31 07:08:43;;;;;;;38.33;13.87;;;14.80;99.90;;;;;;5075656;28;20195;-67
2024/03/31 07:11:09;;;;;;;30.67;12.50;;;14.80;99.90;;;;;;5075561;28;20198;-68
2024/03/31 07:13:36;;;;;;;26.30;10.70;;;14.80;99.90;;;;;;5074775;28;20194;-68
2024/03/31 07:16:02;;;;;;;32.53;10.97;;;14.80;99.90;;;;;;5064435;28;20202;-68
2024/03/31 07:18:31;;;;;;;46.50;13.23;;;14.80;99.90;;;;;;5072051;28;20202;-68
2024/03/31 07:20:58;;;;;;;41.07;12.93;;;14.90;99.90;;;;;;5090283;28;20253;-68
2024/03/31 07:23:26;;;;;;;45.63;12.13;;;15.00;99.90;;;;;;5072235;28;20331;-67
2024/03/31 07:25:52;;;;;;;33.30;9.93;;;15.00;99.90;;;;;;5066127;28;20517;-67
2024/03/31 07:28:20;;;;;;;19.80;8.03;;;15.10;99.90;;;;;;5070401;28;20196;-68
2024/03/31 07:30:46;;;;;;;20.40;7.60;;;15.10;99.90;;;;;;5078804;28;20196;-68
2024/03/31 07:33:13;;;;;;;26.97;7.83;;;15.10;99.90;;;;;;5074970;28;20626;-68
2024/03/31 07:35:40;;;;;;;20.33;6.57;;;15.10;99.90;;;;;;5069300;28;20196;-68
2024/03/31 07:38:08;;;;;;;21.93;5.93;;;15.20;99.90;;;;;;5077218;28;20196;-68
2024/03/31 07:40:34;;;;;;;19.27;6.63;;;15.30;99.90;;;;;;5077399;28;20206;-68
2024/03/31 07:43:01;;;;;;;14.07;6.10;;;15.20;99.90;;;;;;5073285;28;20180;-68
2024/03/31 07:45:28;;;;;;;30.33;9.10;;;15.30;99.90;;;;;;5089146;28;20222;-68
2024/03/31 07:47:55;;;;;;;33.70;9.37;;;15.30;99.90;;;;;;5072270;28;20238;-67
2024/03/31 07:50:21;;;;;;;38.77;10.13;;;15.40;99.90;;;;;;5080493;28;20192;-68
2024/03/31 07:52:48;;;;;;;37.43;9.60;;;15.40;99.90;;;;;;5073647;28;20192;-67
2024/03/31 07:55:16;;;;;;;30.40;8.60;;;15.40;99.90;;;;;;5077170;28;20212;-69
2024/03/31 07:57:43;;;;;;;20.87;7.10;;;15.50;99.90;;;;;;5072203;28;20206;-69
2024/03/31 08:00:09;;;;;;;36.47;9.97;;;15.50;99.90;;;;;;5069669;28;20215;-68
2024/03/31 08:02:39;;;;;;;32.53;9.03;;;15.50;99.90;;;;;;5084709;28;20195;-68
2024/03/31 08:05:05;;;;;;;29.37;9.10;;;15.60;99.90;;;;;;5080894;28;20204;-69
2024/03/31 08:07:33;;;;;;;32.57;8.73;;;15.70;99.90;;;;;;5072066;28;20219;-68
2024/03/31 08:09:59;;;;;;;21.60;6.93;;;15.70;99.90;;;;;;5084176;28;20257;-69
2024/03/31 08:12:27;;;;;;;39.47;8.57;;;15.80;99.90;;;;;;5078552;28;20216;-69
2024/03/31 08:14:53;;;;;;;36.50;8.43;;;15.90;99.90;;;;;;5061717;28;20252;-69
2024/03/31 08:17:20;;;;;;;42.37;9.57;;;16.00;99.90;;;;;;5063821;28;20187;-68
2024/03/31 08:19:46;;;;;;;22.13;7.67;;;16.10;99.90;;;;;;5067845;28;20708;-68
2024/03/31 08:22:14;;;;;;;39.97;8.53;;;16.10;99.90;;;;;;5068698;28;20188;-69
2024/03/31 08:24:40;;;;;;;32.33;7.70;;;16.20;99.90;;;;;;5094630;28;20702;-69
2024/03/31 08:27:09;;;;;;;29.50;7.70;;;16.30;99.90;;;;;;5090259;28;20195;-69
2024/03/31 08:29:36;;;;;;;48.93;8.33;;;16.40;99.90;;;;;;5072044;28;20192;-69
2024/03/31 08:32:04;;;;;;;30.57;7.00;;;16.50;99.90;;;;;;5096328;28;20322;-68
2024/03/31 08:34:30;;;;;;;28.67;6.23;;;16.70;99.90;;;;;;5086713;28;20203;-68
2024/03/31 08:36:57;;;;;;;34.13;7.07;;;16.80;99.90;;;;;;5095555;28;20238;-68
2024/03/31 08:39:23;;;;;;;29.00;7.53;;;17.00;99.90;;;;;;5090760;28;20197;-68
2024/03/31 08:41:59;;;;;;;26.17;6.77;;;17.10;99.90;;;;;;5099442;28;20192;-68
2024/03/31 08:44:25;;;;;;;37.43;7.00;;;17.30;99.90;;;;;;5099813;28;20192;-69
2024/03/31 08:46:56;;;;;;;36.53;7.07;;;17.40;99.90;;;;;;5074528;28;20200;-69
2024/03/31 08:49:22;;;;;;;20.77;5.80;;;17.60;99.60;;;;;;5092744;28;20196;-69
2024/03/31 08:51:49;;;;;;;27.70;6.43;;;17.70;99.60;;;;;;5090838;28;20224;-69
2024/03/31 08:54:15;;;;;;;19.60;5.93;;;18.00;99.40;;;;;;5102055;28;20204;-68
2024/03/31 08:56:43;;;;;;;41.13;7.77;;;18.20;99.20;;;;;;5088075;28;20243;-67
2024/03/31 08:59:09;;;;;;;25.70;7.30;;;18.40;98.80;;;;;;5091357;28;20545;-68
2024/03/31 09:01:37;;;;;;;23.17;6.93;;;18.70;98.60;;;;;;5096080;28;20586;-69
2024/03/31 09:04:04;;;;;;;31.90;6.50;;;18.90;98.40;;;;;;5095020;28;20201;-68
2024/03/31 09:06:32;;;;;;;15.37;5.13;;;19.10;98.00;;;;;;5093561;28;20190;-68
2024/03/31 09:08:59;;;;;;;22.02;5.63;;;19.30;97.70;;;;;;5094900;28;20580;-68
2024/03/31 09:11:26;;;;;;;23.80;4.85;;;19.50;97.60;;;;;;5077496;28;20667;-68
2024/03/31 09:13:52;;;;;;;23.48;5.60;;;19.70;97.30;;;;;;5094446;28;20203;-68
2024/03/31 09:16:21;;;;;;;30.25;6.10;;;19.90;96.50;;;;;;5097431;28;20203;-69
2024/03/31 09:18:47;;;;;;;11.55;3.75;;;20.00;96.20;;;;;;5096722;28;20200;-69
2024/03/31 09:21:16;;;;;;;16.38;4.25;;;20.20;96.20;;;;;;5080923;28;20311;-68
2024/03/31 09:23:42;;;;;;;19.20;4.40;;;20.30;96.00;;;;;;5091888;28;20232;-68
2024/03/31 09:26:10;;;;;;;43.70;5.53;;;20.50;95.70;;;;;;5091912;28;20189;-68
2024/03/31 09:28:36;;;;;;;39.47;5.63;;;20.70;94.80;;;;;;5083583;28;20200;-68
2024/03/31 09:31:04;;;;;;;25.33;5.43;;;20.80;94.70;;;;;;5093440;28;20261;-69
2024/03/31 09:33:32;;;;;;;46.10;8.18;;;21.00;94.40;;;;;;5095678;28;20200;-69
2024/03/31 09:36:01;;;;;;;30.42;8.35;;;21.10;93.70;;;;;;5083211;28;20192;-69
2024/03/31 09:38:29;;;;;;;37.38;7.70;;;21.00;92.80;;;;;;5080489;28;20208;-69
2024/03/31 09:40:56;;;;;;;35.53;7.80;;;21.00;92.70;;;;;;5095414;28;20285;-69
2024/03/31 09:43:23;;;;;;;42.55;7.80;;;21.00;92.20;;;;;;5098803;28;20245;-68
2024/03/31 09:45:51;;;;;;;29.88;6.40;;;21.00;92.00;;;;;;5094227;28;20185;-69
2024/03/31 09:48:24;;;;;;;30.08;7.18;;;21.10;92.40;;;;;;5086676;28;20199;-68
2024/03/31 09:51:01;;;;;;;26.85;6.05;;;21.20;92.40;;;;;;5096518;28;20187;-68
2024/03/31 09:53:30;;;;;;;42.42;7.30;;;21.40;92.60;;;;;;5100584;28;20578;-68
2024/03/31 09:56:03;;;;;;;30.67;6.30;;;21.50;92.20;;;;;;5079883;28;20524;-68
2024/03/31 09:58:34;;;;;;;44.75;7.32;;;21.50;92.10;;;;;;5098660;28;20235;-68
2024/03/31 10:01:03;;;;;;;17.17;5.18;;;21.60;91.80;;;;;;5097413;28;20211;-68
2024/03/31 10:03:34;;;;;;;28.30;6.10;;;21.70;91.70;;;;;;5079443;28;20319;-68
2024/03/31 10:06:01;;;;;;;24.65;4.88;;;21.80;91.50;;;;;;5075189;28;20261;-68
2024/03/31 10:08:29;;;;;;;34.58;5.88;;;21.90;91.40;;;;;;5108954;28;20198;-68
2024/03/31 10:10:58;;;;;;;29.65;5.78;;;22.00;91.10;;;;;;5098637;28;20223;-68
2024/03/31 10:13:26;;;;;;;23.30;5.25;;;22.10;90.80;;;;;;5090478;28;20275;-68
2024/03/31 10:15:55;;;;;;;22.08;5.25;;;22.10;90.80;;;;;;5090037;28;20183;-68
2024/03/31 10:18:23;;;;;;;27.98;6.03;;;22.20;90.70;;;;;;5092365;28;20197;-68
2024/03/31 10:20:51;;;;;;;21.20;5.38;;;22.30;90.20;;;;;;5093054;28;20633;-69
2024/03/31 10:23:18;;;;;;;41.63;6.82;;;22.40;90.30;;;;;;5087338;28;20336;-69
2024/03/31 10:25:47;;;;;;;22.75;4.82;;;22.50;90.20;;;;;;5089512;28;20195;-69
2024/03/31 10:28:14;;;;;;;25.10;5.05;;;22.60;90.20;;;;;;5091471;28;20253;-68
2024/03/31 10:30:41;;;;;;;22.10;4.20;;;22.70;89.90;;;;;;5094068;28;20189;-69
2024/03/31 10:33:09;;;;;;;23.77;4.30;;;22.70;90.00;;;;;;5072546;28;20541;-69
2024/03/31 10:35:38;;;;;;;35.70;5.40;;;22.80;90.30;;;;;;5091972;28;20204;-69
2024/03/31 10:38:04;;;;;;;24.50;5.03;;;23.00;89.40;;;;;;5076203;28;20204;-69
2024/03/31 10:40:33;;;;;;;33.83;5.00;;;23.20;89.60;;;;;;5100007;28;20675;-68
2024/03/31 10:43:01;;;;;;;37.28;6.07;;;23.20;88.90;;;;;;5098835;28;20383;-69
2024/03/31 10:45:28;;;;;;;23.23;5.72;;;23.30;87.50;;;;;;5087976;28;20192;-69
2024/03/31 10:47:55;;;;;;;30.67;5.60;;;23.20;87.50;;;;;;5089631;28;20203;-69
2024/03/31 10:50:25;;;;;;;34.13;6.07;;;23.20;86.80;;;;;;5087879;28;20666;-69
2024/03/31 10:52:52;;;;;;;32.78;5.38;;;23.20;87.20;;;;;;5097431;28;20281;-67
2024/03/31 10:55:21;;;;;;;35.75;5.45;;;23.30;87.50;;;;;;5086424;28;20211;-69
2024/03/31 10:57:56;;;;;;;33.08;5.43;;;23.30;87.10;;;;;;5099560;28;20200;-68
2024/03/31 11:00:25;;;;;;;39.85;6.28;;;23.30;87.10;;;;;;5073861;28;20223;-68
2024/03/31 11:02:52;;;;;;;30.98;4.95;;;23.30;86.50;;;;;;5093584;28;20509;-69
2024/03/31 11:05:21;;;;;;;28.67;5.05;;;23.30;86.30;;;;;;5094064;28;20189;-68
2024/03/31 11:07:48;;;;;;;28.23;5.18;;;23.20;85.40;;;;;;5096281;28;20264;-68
2024/03/31 11:10:16;;;;;;;18.80;4.97;;;23.30;85.60;;;;;;5093807;28;20267;-68
2024/03/31 11:12:43;;;;;;;34.78;5.45;;;23.30;85.80;;;;;;5095908;28;20220;-69
2024/03/31 11:15:11;;;;;;;35.40;6.55;;;23.40;86.20;;;;;;5093916;28;20612;-69
2024/03/31 11:17:40;;;;;;;20.17;4.63;;;23.40;86.00;;;;;;5084876;28;20673;-68
2024/03/31 11:20:09;;;;;;;23.45;4.90;;;23.40;86.10;;;;;;5092678;28;20241;-69
2024/03/31 11:22:36;;;;;;;35.17;5.47;;;23.60;86.50;;;;;;5085901;28;20192;-69
2024/03/31 11:25:06;;;;;;;26.20;4.57;;;23.60;85.50;;;;;;5094879;28;20224;-69
2024/03/31 11:27:32;;;;;;;26.23;4.72;;;23.70;85.00;;;;;;5076722;28;20655;-69
2024/03/31 11:30:00;;;;;;;32.60;5.78;;;23.70;84.10;;;;;;5097839;28;20214;-69
2024/03/31 11:32:28;;;;;;;21.83;5.10;;;23.70;83.50;;;;;;5091403;28;20291;-69
2024/03/31 11:34:57;;;;;;;21.95;4.57;;;23.70;83.30;;;;;;5093726;28;20594;-69
2024/03/31 11:37:23;;;;;;;44.95;6.50;;;23.80;83.20;;;;;;5085570;28;20192;-68
2024/03/31 11:39:57;;;;;;;36.50;5.32;;;23.80;82.10;;;;;;5096333;28;20184;-69
2024/03/31 11:42:25;;;;;;;31.30;5.82;;;23.80;81.00;;;;;;5095939;28;20193;-69
2024/03/31 11:44:52;;;;;;;26.08;5.15;;;23.80;80.30;;;;;;5097678;28;20189;-69
2024/03/31 11:47:19;;;;;;;26.10;5.60;;;23.70;79.80;;;;;;5087714;28;20201;-69
2024/03/31 11:49:46;;;;;;;29.20;4.80;;;23.60;79.70;;;;;;5100396;28;20339;-68
2024/03/31 11:52:14;;;;;;;31.73;5.22;;;23.60;80.10;;;;;;5087099;28;20207;-69
2024/03/31 11:54:42;;;;;;;32.60;5.65;;;23.60;80.20;;;;;;5101898;28;20276;-69
2024/03/31 11:57:09;;;;;;;20.60;4.22;;;23.50;79.80;;;;;;5091493;28;20197;-69
2024/03/31 11:59:36;;;;;;;25.38;4.55;;;23.40;79.90;;;;;;5092114;28;20246;-69
2024/03/31 12:02:03;;;;;;;21.50;4.55;;;23.40;80.00;;;;;;5070542;28;20263;-69
2024/03/31 12:04:31;;;;;;;16.27;4.07;;;23.40;79.80;;;;;;5093096;28;20195;-70
2024/03/31 12:06:58;;;;;;;19.40;4.00;;;23.40;80.10;;;;;;5093374;28;20189;-69
2024/03/31 12:09:26;;;;;;;23.48;4.47;;;23.50;80.30;;;;;;5093564;28;20192;-69
2024/03/31 12:11:53;;;;;;;24.58;4.20;;;23.60;80.30;;;;;;5094328;28;20189;-70
2024/03/31 12:14:21;;;;;;;17.35;3.58;;;23.60;80.20;;;;;;5091529;28;20188;-69
2024/03/31 12:16:47;;;;;;;26.23;5.45;;;23.60;80.40;;;;;;5087032;28;20208;-69
2024/03/31 12:19:14;;;;;;;36.88;6.30;;;23.60;79.60;;;;;;5083417;28;20180;-68
2024/03/31 12:21:41;;;;;;;26.85;4.45;;;23.60;78.50;;;;;;5095719;28;20726;-69
2024/03/31 12:24:09;;;;;;;23.77;4.03;;;23.50;78.90;;;;;;5096859;28;20662;-70
2024/03/31 12:26:38;;;;;;;32.70;5.63;;;23.40;79.50;;;;;;5090899;28;20278;-70
2024/03/31 12:29:07;;;;;;;22.63;4.47;;;23.50;80.00;;;;;;5072192;28;20418;-69
2024/03/31 12:31:33;;;;;;;23.50;4.03;;;23.40;79.10;;;;;;5099893;28;20195;-71
2024/03/31 12:34:00;;;;;;;20.23;3.70;;;23.40;78.50;;;;;;5092896;28;20188;-69
2024/03/31 12:36:27;;;;;;;28.73;3.85;;;23.40;78.50;;;;;;5101286;28;20358;-69